createdAt,value
2023-03-21T00:04:24.467Z,100422.53
2023-03-21T00:09:27.211Z,100425.16
2023-03-21T00:14:30.820Z,100422.59
2023-03-21T00:19:33.225Z,100418.19
2023-03-21T00:24:36.831Z,100407.50
2023-03-21T00:29:39.095Z,100412.78
2023-03-21T00:34:48.803Z,100406.22
2023-03-21T00:39:57.017Z,100397.75
2023-03-21T00:44:59.249Z,100395.31
2023-03-21T00:50:01.427Z,100392.63
2023-03-21T00:55:03.904Z,100389.03
2023-03-21T01:00:09.741Z,100388.22
2023-03-21T01:05:12.115Z,100381.34
2023-03-21T01:10:14.308Z,100386.56
2023-03-21T01:15:16.526Z,100373.06
2023-03-21T01:20:19.048Z,100383.03
2023-03-21T01:25:22.885Z,100383.03
2023-03-21T01:30:28.681Z,100380.53
2023-03-21T01:35:40.939Z,100378.06
2023-03-21T01:40:51.288Z,100369.25
2023-03-21T01:46:24.129Z,100379.69
2023-03-21T01:51:28.453Z,100383.00
2023-03-21T01:56:37.830Z,100382.19
2023-03-21T02:01:44.832Z,100372.28
2023-03-21T02:06:52.542Z,100384.09
2023-03-21T02:11:55.704Z,100388.50
2023-03-21T02:17:08.132Z,100376.94
2023-03-21T02:22:27.850Z,100377.75
2023-03-21T02:27:36.157Z,100374.47
2023-03-21T02:32:53.337Z,100377.25
2023-03-21T02:38:08.994Z,100375.84
2023-03-21T02:44:03.340Z,100369.53
2023-03-21T02:49:11.865Z,100375.31
2023-03-21T02:54:38.286Z,100375.56
2023-03-21T02:59:51.797Z,100385.19
2023-03-21T03:04:56.361Z,100384.09
2023-03-21T03:10:05.519Z,100369.28
2023-03-21T03:15:22.030Z,100374.75
2023-03-21T03:20:39.445Z,100379.97
2023-03-21T03:26:00.962Z,100386.59
2023-03-21T03:31:09.621Z,100377.25
2023-03-21T03:36:30.541Z,100381.91
2023-03-21T03:42:04.322Z,100384.66
2023-03-21T03:47:15.213Z,100380.53
2023-03-21T03:52:29.597Z,100382.44
2023-03-21T03:57:32.446Z,100380.78
2023-03-21T04:02:34.744Z,100379.13
2023-03-21T04:07:36.988Z,100395.34
2023-03-21T04:12:39.101Z,100388.47
2023-03-21T04:17:41.914Z,100378.56
2023-03-21T04:22:44.151Z,100393.41
2023-03-21T04:27:48.486Z,100389.56
2023-03-21T04:32:54.047Z,100390.94
2023-03-21T04:37:56.454Z,100383.47
2023-03-21T04:43:01.264Z,100392.53
2023-03-21T04:48:04.410Z,100385.63
2023-03-21T04:53:06.672Z,100390.22
2023-03-21T04:58:09.154Z,100384.31
2023-03-21T05:03:16.055Z,100387.03
2023-03-21T05:08:18.266Z,100399.28
2023-03-21T05:13:20.875Z,100396.00
2023-03-21T05:18:26.278Z,100394.72
2023-03-21T05:23:31.645Z,100401.66
2023-03-21T05:28:36.228Z,100402.50
2023-03-21T05:33:38.383Z,100403.88
2023-03-21T05:38:45.477Z,100409.66
2023-03-21T05:49:42.361Z,100408.00
2023-03-21T05:54:44.741Z,100414.88
2023-03-21T05:59:46.838Z,100423.69
2023-03-21T06:04:49.029Z,100423.09
2023-03-21T06:09:51.548Z,100433.00
2023-03-21T06:14:53.660Z,100422.56
2023-03-21T06:19:55.882Z,100430.78
2023-03-21T06:24:58.072Z,100421.09
2023-03-21T06:30:00.350Z,100417.75
2023-03-21T06:35:02.556Z,100425.97
2023-03-21T06:40:06.169Z,100427.34
2023-03-21T06:45:08.690Z,100420.72
2023-03-21T06:50:11.172Z,100419.66
2023-03-21T06:55:13.344Z,100418.03
2023-03-21T07:00:17.237Z,100429.00
2023-03-21T07:05:19.512Z,100427.56
2023-03-21T07:10:21.652Z,100444.00
2023-03-21T07:15:23.889Z,100438.22
2023-03-21T07:20:27.157Z,100439.84
2023-03-21T07:25:29.332Z,100431.03
2023-03-21T07:30:36.951Z,100437.59
2023-03-21T07:35:39.422Z,100441.66
2023-03-21T07:40:41.768Z,100437.66
2023-03-21T07:45:45.078Z,100435.81
2023-03-21T07:50:49.206Z,100438.81
2023-03-21T07:55:52.740Z,100432.50
2023-03-21T08:00:58.126Z,100442.22
2023-03-21T08:06:01.551Z,100431.50
2023-03-21T08:11:04.395Z,100439.16
2023-03-21T08:16:07.831Z,100430.97
2023-03-21T08:21:09.977Z,100427.72
2023-03-21T08:26:18.294Z,100429.09
2023-03-21T08:31:21.906Z,100422.75
2023-03-21T08:36:25.107Z,100424.66
2023-03-21T08:41:27.256Z,100412.50
2023-03-21T08:46:30.566Z,100418.22
2023-03-21T08:51:33.666Z,100426.41
2023-03-21T08:56:37.377Z,100423.72
2023-03-21T09:01:39.786Z,100415.94
2023-03-21T09:06:45.592Z,100407.16
2023-03-21T09:11:47.730Z,100403.72
2023-03-21T09:16:50.167Z,100403.28
2023-03-21T09:21:53.683Z,100418.66
2023-03-21T09:26:55.821Z,100407.66
2023-03-21T09:31:58.282Z,100417.94
2023-03-21T09:37:00.885Z,100402.72
2023-03-21T09:42:15.500Z,100403.22
2023-03-21T09:47:25.114Z,100411.13
2023-03-21T09:52:58.972Z,100407.88
2023-03-21T09:58:26.137Z,100411.72
2023-03-21T10:03:36.444Z,100398.91
2023-03-21T10:08:45.251Z,100399.47
2023-03-21T10:14:00.159Z,100405.41
2023-03-21T10:19:09.856Z,100395.59
2023-03-21T10:24:24.565Z,100397.50
2023-03-21T10:29:32.709Z,100383.00
2023-03-21T10:39:59.459Z,100375.16
2023-03-21T10:45:01.888Z,100373.78
2023-03-21T10:50:13.372Z,100364.50
2023-03-21T10:55:24.584Z,100363.94
2023-03-21T11:00:33.954Z,100365.72
2023-03-21T11:05:40.231Z,100352.41
2023-03-21T11:11:04.090Z,100356.09
2023-03-21T11:16:06.328Z,100341.47
2023-03-21T11:21:14.668Z,100339.75
2023-03-21T11:26:37.693Z,100324.53
2023-03-21T11:31:40.982Z,100325.94
2023-03-21T11:36:43.139Z,100306.91
2023-03-21T11:41:48.323Z,100305.34
2023-03-21T11:46:51.776Z,100297.59
2023-03-21T11:52:11.345Z,100292.25
2023-03-21T11:57:33.165Z,100309.53
2023-03-21T12:03:13.825Z,100283.69
2023-03-21T12:08:36.139Z,100282.03
2023-03-21T12:14:23.892Z,100288.25
2023-03-21T12:19:46.739Z,100293.00
2023-03-21T12:24:55.496Z,100281.53
2023-03-21T12:30:09.831Z,100286.12
2023-03-21T12:35:14.862Z,100280.31
2023-03-21T12:40:44.393Z,100264.94
2023-03-21T12:45:50.893Z,100239.78
2023-03-21T12:50:56.319Z,100225.59
2023-03-21T12:56:03.845Z,100240.37
2023-03-21T13:01:06.807Z,100249.16
2023-03-21T13:06:13.210Z,100235.44
2023-03-21T13:11:22.585Z,100242.06
2023-03-21T13:16:27.634Z,100236.84
2023-03-21T13:21:47.421Z,100233.25
2023-03-21T13:26:55.551Z,100221.47
2023-03-21T13:32:20.613Z,100215.59
2023-03-21T13:37:25.399Z,100223.69
2023-03-21T13:42:32.858Z,100211.69
2023-03-21T13:47:54.647Z,100200.97
2023-03-21T13:53:11.816Z,100219.16
2023-03-21T13:58:32.234Z,100197.53
2023-03-21T14:03:35.207Z,100196.34
2023-03-21T14:08:41.401Z,100195.53
2023-03-21T14:13:51.271Z,100185.16
2023-03-21T14:19:03.890Z,100178.50
2023-03-21T14:24:12.521Z,100175.81
2023-03-21T14:29:27.040Z,100157.38
2023-03-21T14:34:33.492Z,100154.66
2023-03-21T14:39:35.943Z,100146.53
2023-03-21T14:44:54.792Z,100152.91
2023-03-21T14:49:58.442Z,100146.16
2023-03-21T14:55:02.808Z,100143.56
2023-03-21T15:00:12.881Z,100151.81
2023-03-21T15:05:30.916Z,100148.22
2023-03-21T15:10:33.300Z,100149.69
2023-03-21T15:15:35.580Z,100140.25
2023-03-21T15:20:38.567Z,100133.56
2023-03-21T15:25:41.549Z,100145.75
2023-03-21T15:30:52.456Z,100127.50
2023-03-21T15:35:59.052Z,100137.72
2023-03-21T15:41:24.576Z,100144.88
2023-03-21T15:46:45.363Z,100138.87
2023-03-21T15:51:48.513Z,100146.59
2023-03-21T15:57:09.605Z,100150.81
2023-03-21T16:02:19.113Z,100142.78
2023-03-21T16:07:24.298Z,100143.41
2023-03-21T16:12:27.372Z,100150.34
2023-03-21T16:17:39.705Z,100156.84
2023-03-21T16:22:41.902Z,100150.75
2023-03-21T16:27:45.323Z,100162.09
2023-03-21T16:32:48.247Z,100156.47
2023-03-21T16:37:50.463Z,100158.53
2023-03-21T16:42:52.693Z,100166.94
2023-03-21T16:47:55.646Z,100173.25
2023-03-21T16:52:59.119Z,100183.78
2023-03-21T16:58:01.967Z,100188.56
2023-03-21T17:03:14.319Z,100188.66
2023-03-21T17:08:19.291Z,100196.44
2023-03-21T17:13:21.716Z,100191.66
2023-03-21T17:18:23.874Z,100193.37
2023-03-21T17:23:26.312Z,100190.22
2023-03-21T17:28:28.454Z,100207.53
2023-03-21T17:33:31.059Z,100210.59
2023-03-21T17:38:33.288Z,100200.72
2023-03-21T17:43:35.523Z,100205.38
2023-03-21T17:48:37.693Z,100208.69
2023-03-21T17:53:39.844Z,100203.97
2023-03-21T17:58:42.090Z,100214.69
2023-03-21T18:03:44.228Z,100224.66
2023-03-21T18:08:47.524Z,100224.47
2023-03-21T18:13:49.931Z,100232.44
2023-03-21T18:18:53.893Z,100242.22
2023-03-21T18:23:56.120Z,100237.25
2023-03-21T18:29:47.347Z,100237.41
2023-03-21T18:34:20.689Z,100242.94
2023-03-21T18:39:23.127Z,100242.62
2023-03-21T18:44:25.695Z,100248.31
2023-03-21T18:50:06.063Z,100252.38
2023-03-21T18:54:50.426Z,100259.31
2023-03-21T18:59:53.240Z,100259.66
2023-03-21T19:04:57.722Z,100264.91
2023-03-21T19:10:16.526Z,100269.25
2023-03-21T19:15:21.860Z,100263.97
2023-03-21T19:20:24.156Z,100262.34
2023-03-21T19:25:26.612Z,100277.44
2023-03-21T19:30:28.740Z,100275.53
2023-03-21T19:35:31.469Z,100279.41
2023-03-21T19:40:33.979Z,100284.25
2023-03-21T19:45:36.270Z,100288.00
2023-03-21T19:51:03.475Z,100292.31
2023-03-21T19:56:03.626Z,100282.91
2023-03-21T20:01:06.153Z,100285.25
2023-03-21T20:06:10.244Z,100298.06
2023-03-21T20:11:12.391Z,100307.28
2023-03-21T20:16:15.046Z,100308.53
2023-03-21T20:21:21.549Z,100301.91
2023-03-21T20:26:26.105Z,100310.97
2023-03-21T20:31:28.294Z,100318.28
2023-03-21T20:36:41.158Z,100305.13
2023-03-21T20:41:45.056Z,100309.69
2023-03-21T20:46:47.703Z,100313.59
2023-03-21T20:57:12.573Z,100321.06
2023-03-21T21:02:15.026Z,100322.63
2023-03-21T21:07:20.390Z,100322.13
2023-03-21T21:12:27.669Z,100318.34
2023-03-21T21:18:01.576Z,100319.13
2023-03-21T21:22:59.410Z,100328.41
2023-03-21T21:28:02.807Z,100335.09
2023-03-21T21:33:05.514Z,100324.63
2023-03-21T21:38:07.647Z,100327.66
2023-03-21T21:43:10.150Z,100326.00
2023-03-21T21:48:12.614Z,100335.59
2023-03-21T21:53:18.474Z,100343.06
2023-03-21T21:58:21.312Z,100337.31
2023-03-21T22:03:23.566Z,100344.50
2023-03-21T22:08:25.943Z,100355.78
2023-03-21T22:13:28.757Z,100355.25
2023-03-21T22:18:30.909Z,100378.63
2023-03-21T22:23:33.311Z,100381.91
2023-03-21T22:28:36.319Z,100395.34
2023-03-21T22:33:38.542Z,100401.88
2023-03-21T22:38:41.979Z,100392.78
2023-03-21T22:43:44.302Z,100385.63
2023-03-21T22:48:46.462Z,100396.06
2023-03-21T22:53:48.743Z,100395.19
2023-03-21T22:58:50.968Z,100391.88
2023-03-21T23:03:53.239Z,100385.56
2023-03-21T23:08:55.434Z,100383.37
2023-03-21T23:14:07.297Z,100386.37
2023-03-21T23:19:10.645Z,100381.75
2023-03-21T23:24:14.946Z,100371.00
2023-03-21T23:29:17.053Z,100380.50
2023-03-21T23:34:19.172Z,100380.16
2023-03-21T23:39:21.288Z,100380.88
2023-03-21T23:44:23.398Z,100377.97
2023-03-21T23:49:26.378Z,100384.28
2023-03-21T23:54:28.582Z,100395.19
2023-03-21T23:59:30.705Z,100385.78
